Time,TemperatureF,DewpointF,PressureIn,WindDirection,WindDirectionDegrees,WindSpeedMPH,WindSpeedGustMPH,Humidity,HourlyPrecipIn,Conditions,Clouds,dailyrainin,SoftwareType,DateUTC
2013-01-12 00:03:00,50.6,46.9,29.54,SSW,192,13.0,19.0,87,0.00,,---,0.00,VWS V14.00,2013-01-12 06:03:00,
2013-01-12 00:08:00,50.6,46.9,29.54,SSW,202,10.0,15.0,87,0.00,,---,0.00,VWS V14.00,2013-01-12 06:08:00,
2013-01-12 00:13:00,50.5,46.8,29.54,SSW,200,11.0,11.0,87,0.00,,---,0.00,VWS V14.00,2013-01-12 06:13:00,
2013-01-12 00:18:00,50.5,47.1,29.56,SSW,206,7.0,11.0,88,0.00,,---,0.00,VWS V14.00,2013-01-12 06:18:00,
2013-01-12 00:23:00,50.4,47.0,29.56,South,190,12.0,15.0,88,0.00,,---,0.00,VWS V14.00,2013-01-12 06:23:00,
2013-01-12 00:28:00,50.4,47.0,29.56,SSW,205,5.0,14.0,88,0.00,,---,0.00,VWS V14.00,2013-01-12 06:28:00,
2013-01-12 00:33:00,50.2,46.8,29.55,SW,227,14.0,14.0,88,0.00,,---,0.00,VWS V14.00,2013-01-12 06:33:00,
2013-01-12 00:38:00,50.3,46.9,29.55,SSW,213,8.0,14.0,88,0.00,,---,0.00,VWS V14.00,2013-01-12 06:38:00,
2013-01-12 00:43:00,50.4,47.0,29.55,SW,219,9.0,12.0,88,0.00,,---,0.00,VWS V14.00,2013-01-12 06:43:00,
2013-01-12 00:48:00,50.3,46.9,29.56,West,259,10.0,11.0,88,0.00,,---,0.00,VWS V14.00,2013-01-12 06:48:00,
2013-01-12 00:53:00,50.3,46.9,29.56,SW,226,13.0,13.0,88,0.00,,---,0.00,VWS V14.00,2013-01-12 06:53:00,
2013-01-12 00:58:00,50.3,46.9,29.56,SW,234,7.0,11.0,88,0.00,,---,0.00,VWS V14.00,2013-01-12 06:58:00,
2013-01-12 01:03:00,50.2,46.8,29.56,WSW,252,6.0,12.0,88,0.00,,---,0.00,VWS V14.00,2013-01-12 07:03:00,
2013-01-12 01:08:00,50.2,46.8,29.56,SW,223,10.0,11.0,88,0.00,,---,0.00,VWS V14.00,2013-01-12 07:08:00,
2013-01-12 01:13:00,50.1,46.7,29.56,South,173,6.0,11.0,88,0.00,,---,0.00,VWS V14.00,2013-01-12 07:13:00,
2013-01-12 01:18:00,50.1,46.7,29.56,SW,234,6.0,9.0,88,0.00,,---,0.00,VWS V14.00,2013-01-12 07:18:00,
2013-01-12 01:23:00,50.0,46.6,29.56,SSW,204,6.0,12.0,88,0.00,,---,0.00,VWS V14.00,2013-01-12 07:23:00,
2013-01-12 01:28:00,49.9,46.5,29.56,South,191,6.0,12.0,88,0.00,,---,0.00,VWS V14.00,2013-01-12 07:28:00,
2013-01-12 01:33:00,49.9,46.5,29.57,SSW,201,7.0,12.0,88,0.00,,---,0.00,VWS V14.00,2013-01-12 07:33:00,
2013-01-12 01:38:00,49.8,46.4,29.57,SSW,211,7.0,10.0,88,0.00,,---,0.00,VWS V14.00,2013-01-12 07:38:00,
2013-01-12 01:43:00,49.7,46.3,29.57,SW,235,5.0,14.0,88,0.00,,---,0.00,VWS V14.00,2013-01-12 07:43:00,
2013-01-12 01:48:00,50.0,46.6,29.57,SSW,213,11.0,14.0,88,0.00,,---,0.00,VWS V14.00,2013-01-12 07:48:00,
2013-01-12 01:53:00,50.1,46.7,29.57,SW,222,9.0,13.0,88,0.00,,---,0.00,VWS V14.00,2013-01-12 07:53:00,
2013-01-12 01:58:00,50.3,46.6,29.57,SW,217,9.0,13.0,87,0.00,,---,0.00,VWS V14.00,2013-01-12 07:58:00,
2013-01-12 02:03:00,50.3,46.6,29.58,SSW,196,14.0,15.0,87,0.00,,---,0.00,VWS V14.00,2013-01-12 08:03:00,
2013-01-12 02:08:00,49.9,46.5,29.58,SSW,197,6.0,14.0,88,0.00,,---,0.00,VWS V14.00,2013-01-12 08:08:00,
2013-01-12 02:13:00,49.7,46.3,29.58,WSW,244,8.0,17.0,88,0.00,,---,0.00,VWS V14.00,2013-01-12 08:13:00,
2013-01-12 02:18:00,49.6,46.2,29.58,SW,231,9.0,10.0,88,0.00,,---,0.00,VWS V14.00,2013-01-12 08:18:00,
2013-01-12 02:23:00,49.6,46.2,29.58,South,190,7.0,12.0,88,0.00,,---,0.00,VWS V14.00,2013-01-12 08:23:00,
2013-01-12 02:28:00,49.6,46.2,29.58,SW,214,14.0,15.0,88,0.00,,---,0.00,VWS V14.00,2013-01-12 08:28:00,
2013-01-12 02:33:00,49.6,46.2,29.58,SW,227,10.0,11.0,88,0.00,,---,0.00,VWS V14.00,2013-01-12 08:33:00,
2013-01-12 02:38:00,49.8,46.4,29.58,WSW,241,14.0,14.0,88,0.00,,---,0.00,VWS V14.00,2013-01-12 08:38:00,
2013-01-12 02:43:00,50.0,46.3,29.58,SSW,201,6.0,12.0,87,0.00,,---,0.00,VWS V14.00,2013-01-12 08:43:00,
2013-01-12 02:48:00,50.0,46.3,29.58,SW,224,9.0,12.0,87,0.00,,---,0.00,VWS V14.00,2013-01-12 08:48:00,
2013-01-12 02:54:00,50.0,46.3,29.58,SSW,200,5.0,14.0,87,0.00,,---,0.00,VWS V14.00,2013-01-12 08:54:00,
2013-01-12 02:59:00,49.9,46.2,29.58,SW,216,9.0,12.0,87,0.00,,---,0.00,VWS V14.00,2013-01-12 08:59:00,
2013-01-12 03:03:00,49.9,46.2,29.58,SSW,206,7.0,11.0,87,0.00,,---,0.00,VWS V14.00,2013-01-12 09:03:00,
2013-01-12 03:08:00,50.0,46.3,29.58,SW,217,6.0,12.0,87,0.00,,---,0.00,VWS V14.00,2013-01-12 09:08:00,
2013-01-12 03:13:00,50.3,46.6,29.58,WSW,248,8.0,15.0,87,0.00,,---,0.00,VWS V14.00,2013-01-12 09:13:00,
2013-01-12 03:18:00,50.4,46.4,29.57,SSW,200,7.0,11.0,86,0.00,,---,0.00,VWS V14.00,2013-01-12 09:18:00,
2013-01-12 03:23:00,50.4,46.4,29.57,SW,234,8.0,10.0,86,0.00,,---,0.00,VWS V14.00,2013-01-12 09:23:00,
2013-01-12 03:28:00,50.5,46.5,29.57,SSW,207,8.0,14.0,86,0.00,,---,0.00,VWS V14.00,2013-01-12 09:28:00,
2013-01-12 03:33:00,50.6,46.6,29.57,SSW,201,12.0,14.0,86,0.00,,---,0.00,VWS V14.00,2013-01-12 09:33:00,
2013-01-12 03:38:00,50.6,46.6,29.57,WSW,238,4.0,12.0,86,0.00,,---,0.00,VWS V14.00,2013-01-12 09:38:00,
2013-01-12 03:43:00,50.6,46.6,29.57,SSW,196,8.0,11.0,86,0.00,,---,0.00,VWS V14.00,2013-01-12 09:43:00,
2013-01-12 03:48:00,50.6,46.3,29.57,SSW,205,7.0,14.0,85,0.00,,---,0.00,VWS V14.00,2013-01-12 09:48:00,
2013-01-12 03:53:00,50.7,46.4,29.57,SW,236,6.0,13.0,85,0.00,,---,0.00,VWS V14.00,2013-01-12 09:53:00,
2013-01-12 03:58:00,50.7,46.4,29.57,SSW,204,13.0,16.0,85,0.00,,---,0.00,VWS V14.00,2013-01-12 09:58:00,
2013-01-12 04:03:00,50.9,46.6,29.57,SSW,208,8.0,18.0,85,0.00,,---,0.00,VWS V14.00,2013-01-12 10:03:00,
2013-01-12 04:08:00,51.2,46.5,29.57,SSW,213,7.0,19.0,84,0.00,,---,0.00,VWS V14.00,2013-01-12 10:08:00,
2013-01-12 04:13:00,51.3,46.6,29.57,SW,219,11.0,18.0,84,0.00,,---,0.00,VWS V14.00,2013-01-12 10:13:00,
2013-01-12 04:18:00,51.4,46.4,29.57,South,181,9.0,16.0,83,0.00,,---,0.00,VWS V14.00,2013-01-12 10:18:00,
2013-01-12 04:23:00,51.5,46.5,29.57,WSW,246,7.0,12.0,83,0.00,,---,0.00,VWS V14.00,2013-01-12 10:23:00,
2013-01-12 04:28:00,51.4,46.4,29.57,SSW,207,7.0,16.0,83,0.00,,---,0.00,VWS V14.00,2013-01-12 10:28:00,
2013-01-12 04:33:00,51.4,46.4,29.57,SSE,166,8.0,18.0,83,0.00,,---,0.00,VWS V14.00,2013-01-12 10:33:00,
2013-01-12 04:38:00,51.4,46.4,29.57,SW,216,9.0,15.0,83,0.00,,---,0.00,VWS V14.00,2013-01-12 10:38:00,
2013-01-12 04:43:00,51.3,46.3,29.57,SW,217,12.0,14.0,83,0.00,,---,0.00,VWS V14.00,2013-01-12 10:43:00,
2013-01-12 04:48:00,51.4,46.4,29.57,SW,216,13.0,15.0,83,0.00,,---,0.00,VWS V14.00,2013-01-12 10:48:00,
2013-01-12 04:53:00,51.6,46.3,29.57,WSW,250,7.0,19.0,82,0.00,,---,0.00,VWS V14.00,2013-01-12 10:53:00,
2013-01-12 04:58:00,51.9,46.6,29.57,SSW,208,16.0,22.0,82,0.00,,---,0.00,VWS V14.00,2013-01-12 10:58:00,
2013-01-12 05:03:00,52.0,46.7,29.58,SW,224,6.0,12.0,82,0.00,,---,0.00,VWS V14.00,2013-01-12 11:03:00,
2013-01-12 05:08:00,52.2,46.5,29.58,SSW,203,16.0,22.0,81,0.00,,---,0.00,VWS V14.00,2013-01-12 11:08:00,
2013-01-12 05:13:00,52.3,46.7,29.58,SW,232,8.0,20.0,81,0.00,,---,0.00,VWS V14.00,2013-01-12 11:13:00,
2013-01-12 05:18:00,52.2,46.5,29.58,SW,229,15.0,16.0,81,0.00,,---,0.00,VWS V14.00,2013-01-12 11:18:00,
2013-01-12 05:23:00,52.1,46.5,29.58,West,271,12.0,18.0,81,0.00,,---,0.00,VWS V14.00,2013-01-12 11:23:00,
2013-01-12 05:28:00,52.0,46.4,29.58,SSW,211,13.0,18.0,81,0.00,,---,0.00,VWS V14.00,2013-01-12 11:28:00,
2013-01-12 05:33:00,52.1,46.5,29.58,WSW,248,13.0,19.0,81,0.00,,---,0.00,VWS V14.00,2013-01-12 11:33:00,
2013-01-12 05:38:00,52.0,46.4,29.58,SW,226,9.0,21.0,81,0.00,,---,0.00,VWS V14.00,2013-01-12 11:38:00,
2013-01-12 05:43:00,52.1,46.5,29.58,SW,219,9.0,20.0,81,0.00,,---,0.00,VWS V14.00,2013-01-12 11:43:00,
2013-01-12 05:48:00,51.9,46.3,29.58,WSW,237,11.0,18.0,81,0.00,,---,0.00,VWS V14.00,2013-01-12 11:48:00,
2013-01-12 05:53:00,51.9,46.3,29.58,SSW,199,13.0,20.0,81,0.00,,---,0.00,VWS V14.00,2013-01-12 11:53:00,
2013-01-12 05:58:00,51.9,46.3,29.58,SW,229,16.0,16.0,81,0.00,,---,0.00,VWS V14.00,2013-01-12 11:58:00,
2013-01-12 06:03:00,51.8,46.2,29.58,SSW,196,7.0,16.0,81,0.00,,---,0.00,VWS V14.00,2013-01-12 12:03:00,
2013-01-12 06:08:00,51.7,46.1,29.58,SSW,203,5.0,15.0,81,0.00,,---,0.00,VWS V14.00,2013-01-12 12:08:00,
2013-01-12 06:13:00,51.8,46.2,29.58,SW,218,16.0,23.0,81,0.00,,---,0.00,VWS V14.00,2013-01-12 12:13:00,
2013-01-12 06:18:00,51.7,46.1,29.59,SW,219,9.0,14.0,81,0.00,,---,0.00,VWS V14.00,2013-01-12 12:18:00,
2013-01-12 06:23:00,51.7,46.1,29.59,SW,220,14.0,21.0,81,0.00,,---,0.00,VWS V14.00,2013-01-12 12:23:00,
2013-01-12 06:28:00,51.5,45.9,29.59,SW,219,14.0,16.0,81,0.00,,---,0.00,VWS V14.00,2013-01-12 12:28:00,
2013-01-12 06:33:00,51.6,46.0,29.60,WSW,238,8.0,18.0,81,0.00,,---,0.00,VWS V14.00,2013-01-12 12:33:00,
2013-01-12 06:38:00,51.4,45.8,29.60,West,273,8.0,20.0,81,0.00,,---,0.00,VWS V14.00,2013-01-12 12:38:00,
2013-01-12 06:43:00,51.3,45.7,29.60,WSW,244,9.0,18.0,81,0.00,,---,0.00,VWS V14.00,2013-01-12 12:43:00,
2013-01-12 06:48:00,51.2,45.6,29.61,SSW,211,14.0,17.0,81,0.00,,---,0.00,VWS V14.00,2013-01-12 12:48:00,
2013-01-12 06:53:00,51.2,45.6,29.61,WSW,253,9.0,23.0,81,0.00,,---,0.00,VWS V14.00,2013-01-12 12:53:00,
2013-01-12 06:58:00,51.0,45.4,29.61,WSW,237,7.0,15.0,81,0.00,,---,0.00,VWS V14.00,2013-01-12 12:58:00,
2013-01-12 07:03:00,50.8,45.5,29.61,WSW,239,6.0,15.0,82,0.00,,---,0.00,VWS V14.00,2013-01-12 13:03:00,
2013-01-12 07:08:00,50.6,45.0,29.61,WSW,254,10.0,15.0,81,0.00,,---,0.00,VWS V14.00,2013-01-12 13:08:00,
2013-01-12 07:13:00,50.5,45.2,29.61,SW,231,10.0,16.0,82,0.00,,---,0.00,VWS V14.00,2013-01-12 13:13:00,
2013-01-12 07:18:00,50.3,45.0,29.62,WSW,242,12.0,15.0,82,0.00,,---,0.00,VWS V14.00,2013-01-12 13:18:00,
2013-01-12 07:23:00,50.1,44.8,29.62,SW,232,8.0,20.0,82,0.00,,---,0.00,VWS V14.00,2013-01-12 13:23:00,
2013-01-12 07:28:00,49.9,44.6,29.62,West,274,6.0,14.0,82,0.00,,---,0.00,VWS V14.00,2013-01-12 13:28:00,
2013-01-12 07:33:00,49.7,44.1,29.64,West,273,10.0,16.0,81,0.00,,---,0.00,VWS V14.00,2013-01-12 13:33:00,
2013-01-12 07:38:00,49.7,43.8,29.64,WSW,250,8.0,13.0,80,0.00,,---,0.00,VWS V14.00,2013-01-12 13:38:00,
2013-01-12 07:43:00,49.5,43.6,29.64,WNW,294,11.0,19.0,80,0.00,,---,0.00,VWS V14.00,2013-01-12 13:43:00,
2013-01-12 07:48:00,49.3,43.4,29.65,NNW,333,4.0,15.0,80,0.00,,---,0.00,VWS V14.00,2013-01-12 13:48:00,
2013-01-12 07:53:00,49.1,42.9,29.65,West,271,12.0,18.0,79,0.00,,---,0.00,VWS V14.00,2013-01-12 13:53:00,
2013-01-12 07:58:00,48.7,41.8,29.65,WNW,293,14.0,18.0,77,0.00,,---,0.00,VWS V14.00,2013-01-12 13:58:00,
2013-01-12 08:03:00,48.2,41.3,29.67,WSW,245,18.0,23.0,77,0.00,,---,0.00,VWS V14.00,2013-01-12 14:03:00,
2013-01-12 08:08:00,47.4,41.2,29.67,SW,226,11.0,15.0,79,0.00,,---,0.00,VWS V14.00,2013-01-12 14:08:00,
2013-01-12 08:13:00,46.6,40.5,29.67,West,279,9.0,19.0,79,0.00,,---,0.00,VWS V14.00,2013-01-12 14:13:00,
2013-01-12 08:18:00,46.2,37.7,29.67,WSW,253,11.0,23.0,72,0.00,,---,0.00,VWS V14.00,2013-01-12 14:18:00,
2013-01-12 08:23:00,45.9,36.7,29.67,WSW,241,7.0,20.0,70,0.00,,---,0.00,VWS V14.00,2013-01-12 14:23:00,
2013-01-12 08:28:00,45.3,35.4,29.67,SW,235,11.0,17.0,68,0.00,,---,0.00,VWS V14.00,2013-01-12 14:28:00,
2013-01-12 08:33:00,44.6,35.1,29.69,WSW,253,8.0,21.0,69,0.00,,---,0.00,VWS V14.00,2013-01-12 14:33:00,
2013-01-12 08:38:00,43.9,34.8,29.69,WSW,242,12.0,19.0,70,0.00,,---,0.00,VWS V14.00,2013-01-12 14:38:00,
2013-01-12 08:43:00,43.4,35.0,29.69,WSW,241,10.0,22.0,72,0.00,,---,0.00,VWS V14.00,2013-01-12 14:43:00,
2013-01-12 08:48:00,43.0,35.0,29.70,WSW,238,14.0,16.0,73,0.00,,---,0.00,VWS V14.00,2013-01-12 14:48:00,
2013-01-12 08:53:00,42.7,35.0,29.70,SW,225,12.0,20.0,74,0.00,,---,0.00,VWS V14.00,2013-01-12 14:53:00,
2013-01-12 08:58:00,42.4,34.7,29.70,SW,234,6.0,16.0,74,0.00,,---,0.00,VWS V14.00,2013-01-12 14:58:00,
2013-01-12 09:03:00,42.3,35.0,29.70,WNW,292,9.0,16.0,75,0.00,,---,0.00,VWS V14.00,2013-01-12 15:03:00,
2013-01-12 09:08:00,42.0,33.6,29.70,WSW,242,8.0,16.0,72,0.00,,---,0.00,VWS V14.00,2013-01-12 15:08:00,
2013-01-12 09:13:00,41.4,32.7,29.70,WSW,252,12.0,22.0,71,0.00,,---,0.00,VWS V14.00,2013-01-12 15:13:00,
2013-01-12 09:18:00,40.9,32.6,29.72,SW,221,11.0,18.0,72,0.00,,---,0.00,VWS V14.00,2013-01-12 15:18:00,
2013-01-12 09:23:00,40.4,32.1,29.72,WNW,288,13.0,22.0,72,0.00,,---,0.00,VWS V14.00,2013-01-12 15:23:00,
2013-01-12 09:28:00,39.9,30.9,29.72,West,272,13.0,24.0,70,0.00,,---,0.00,VWS V14.00,2013-01-12 15:28:00,
2013-01-12 09:33:00,39.6,31.3,29.72,WSW,256,8.0,23.0,72,0.00,,---,0.00,VWS V14.00,2013-01-12 15:33:00,
2013-01-12 09:38:00,39.3,31.4,29.72,West,263,9.0,16.0,73,0.00,,---,0.00,VWS V14.00,2013-01-12 15:38:00,
2013-01-12 09:43:00,38.7,31.1,29.72,West,264,9.0,19.0,74,0.00,,---,0.00,VWS V14.00,2013-01-12 15:43:00,
2013-01-12 09:48:00,38.4,30.5,29.73,SW,215,10.0,16.0,73,0.00,,---,0.00,VWS V14.00,2013-01-12 15:48:00,
2013-01-12 09:53:00,38.6,30.4,29.73,West,261,13.0,23.0,72,0.00,,---,0.00,VWS V14.00,2013-01-12 15:53:00,
2013-01-12 09:58:00,38.5,29.9,29.73,WSW,238,9.0,21.0,71,0.00,,---,0.00,VWS V14.00,2013-01-12 15:58:00,
2013-01-12 10:03:00,38.4,30.2,29.74,West,265,14.0,16.0,72,0.00,,---,0.00,VWS V14.00,2013-01-12 16:03:00,
2013-01-12 10:08:00,38.3,30.1,29.74,WSW,242,15.0,21.0,72,0.00,,---,0.00,VWS V14.00,2013-01-12 16:08:00,
2013-01-12 10:13:00,38.3,30.4,29.74,West,260,15.0,18.0,73,0.00,,---,0.00,VWS V14.00,2013-01-12 16:13:00,
2013-01-12 10:18:00,38.3,30.4,29.75,West,262,7.0,21.0,73,0.00,,---,0.00,VWS V14.00,2013-01-12 16:18:00,
2013-01-12 10:23:00,38.3,30.4,29.75,WSW,242,8.0,17.0,73,0.00,,---,0.00,VWS V14.00,2013-01-12 16:23:00,
2013-01-12 10:28:00,38.6,30.7,29.75,WNW,288,11.0,14.0,73,0.00,,---,0.00,VWS V14.00,2013-01-12 16:28:00,
2013-01-12 10:33:00,38.9,31.3,29.75,West,265,10.0,18.0,74,0.00,,---,0.00,VWS V14.00,2013-01-12 16:33:00,
2013-01-12 10:38:00,39.0,31.8,29.75,WSW,238,10.0,16.0,75,0.00,,---,0.00,VWS V14.00,2013-01-12 16:38:00,
2013-01-12 10:43:00,38.8,30.6,29.75,WSW,254,9.0,25.0,72,0.00,,---,0.00,VWS V14.00,2013-01-12 16:43:00,
2013-01-12 10:48:00,38.7,30.5,29.76,WSW,249,4.0,15.0,72,0.00,,---,0.00,VWS V14.00,2013-01-12 16:48:00,
2013-01-12 10:53:00,38.8,30.2,29.76,SSW,207,10.0,14.0,71,0.00,,---,0.00,VWS V14.00,2013-01-12 16:53:00,
2013-01-12 10:58:00,39.3,31.4,29.76,SW,223,5.0,12.0,73,0.00,,---,0.00,VWS V14.00,2013-01-12 16:58:00,
2013-01-12 11:03:00,39.1,31.9,29.77,WSW,243,6.0,8.0,75,0.00,,---,0.00,VWS V14.00,2013-01-12 17:03:00,
2013-01-12 11:08:00,38.5,31.3,29.77,WSW,240,7.0,18.0,75,0.00,,---,0.00,VWS V14.00,2013-01-12 17:08:00,
2013-01-12 11:13:00,38.0,30.8,29.77,WSW,245,8.0,15.0,75,0.00,,---,0.00,VWS V14.00,2013-01-12 17:13:00,
2013-01-12 11:18:00,38.0,30.8,29.76,WSW,244,7.0,16.0,75,0.00,,---,0.00,VWS V14.00,2013-01-12 17:18:00,
2013-01-12 11:23:00,38.4,30.9,29.76,SSW,200,5.0,18.0,74,0.00,,---,0.00,VWS V14.00,2013-01-12 17:23:00,
2013-01-12 11:28:00,38.9,31.3,29.76,WSW,238,9.0,13.0,74,0.00,,---,0.00,VWS V14.00,2013-01-12 17:28:00,
2013-01-12 11:33:00,38.6,29.7,29.75,WSW,256,8.0,19.0,70,0.00,,---,0.00,VWS V14.00,2013-01-12 17:33:00,
2013-01-12 11:38:00,38.3,28.7,29.75,WSW,240,8.0,16.0,68,0.00,,---,0.00,VWS V14.00,2013-01-12 17:38:00,
2013-01-12 11:43:00,38.0,27.7,29.75,WSW,254,16.0,19.0,66,0.00,,---,0.00,VWS V14.00,2013-01-12 17:43:00,
2013-01-12 11:48:00,37.5,27.5,29.75,West,267,4.0,14.0,67,0.00,,---,0.00,VWS V14.00,2013-01-12 17:48:00,
2013-01-12 11:53:00,37.5,27.2,29.75,SW,234,13.0,20.0,66,0.00,,---,0.00,VWS V14.00,2013-01-12 17:53:00,
2013-01-12 11:58:00,37.6,27.6,29.75,WSW,254,9.0,16.0,67,0.00,,---,0.00,VWS V14.00,2013-01-12 17:58:00,
2013-01-12 12:03:00,37.5,27.9,29.77,West,265,14.0,14.0,68,0.00,,---,0.00,VWS V14.00,2013-01-12 18:03:00,
2013-01-12 12:08:00,37.3,28.1,29.77,West,263,4.0,18.0,69,0.00,,---,0.00,VWS V14.00,2013-01-12 18:08:00,
2013-01-12 12:13:00,37.0,27.8,29.77,SSW,202,8.0,15.0,69,0.00,,---,0.00,VWS V14.00,2013-01-12 18:13:00,
2013-01-12 12:18:00,36.6,27.8,29.76,NW,318,5.0,11.0,70,0.00,,---,0.00,VWS V14.00,2013-01-12 18:18:00,
2013-01-12 12:23:00,36.5,27.0,29.76,West,265,5.0,18.0,68,0.00,,---,0.00,VWS V14.00,2013-01-12 18:23:00,
2013-01-12 12:28:00,36.3,26.4,29.76,WSW,250,13.0,22.0,67,0.00,,---,0.00,VWS V14.00,2013-01-12 18:28:00,
2013-01-12 12:33:00,36.0,26.5,29.77,WSW,239,12.0,19.0,68,0.00,,---,0.00,VWS V14.00,2013-01-12 18:33:00,
2013-01-12 12:38:00,35.9,26.7,29.77,West,269,6.0,13.0,69,0.00,,---,0.00,VWS V14.00,2013-01-12 18:38:00,
2013-01-12 12:43:00,35.8,26.6,29.77,West,277,8.0,18.0,69,0.00,,---,0.00,VWS V14.00,2013-01-12 18:43:00,
2013-01-12 12:48:00,35.9,27.1,29.77,West,271,6.0,13.0,70,0.00,,---,0.00,VWS V14.00,2013-01-12 18:48:00,
2013-01-12 12:53:00,35.9,27.1,29.77,WSW,249,12.0,12.0,70,0.00,,---,0.00,VWS V14.00,2013-01-12 18:53:00,
2013-01-12 12:58:00,35.7,26.9,29.77,SW,229,11.0,20.0,70,0.00,,---,0.00,VWS V14.00,2013-01-12 18:58:00,
2013-01-12 13:03:00,35.4,27.0,29.78,SW,225,8.0,15.0,71,0.00,,---,0.00,VWS V14.00,2013-01-12 19:03:00,
2013-01-12 13:08:00,35.5,27.4,29.78,WSW,238,3.0,17.0,72,0.00,,---,0.00,VWS V14.00,2013-01-12 19:08:00,
2013-01-12 13:13:00,35.5,27.4,29.78,SW,231,6.0,11.0,72,0.00,,---,0.00,VWS V14.00,2013-01-12 19:13:00,
2013-01-12 13:18:00,35.5,27.0,29.79,WSW,238,7.0,14.0,71,0.00,,---,0.00,VWS V14.00,2013-01-12 19:18:00,
2013-01-12 13:23:00,35.2,26.8,29.79,SSW,204,7.0,14.0,71,0.00,,---,0.00,VWS V14.00,2013-01-12 19:23:00,
2013-01-12 13:28:00,35.0,26.9,29.79,SW,234,9.0,14.0,72,0.00,,---,0.00,VWS V14.00,2013-01-12 19:28:00,
2013-01-12 13:33:00,35.0,26.9,29.80,West,274,4.0,11.0,72,0.00,,---,0.00,VWS V14.00,2013-01-12 19:33:00,
2013-01-12 13:38:00,34.6,26.5,29.80,West,265,5.0,11.0,72,0.00,,---,0.00,VWS V14.00,2013-01-12 19:38:00,
2013-01-12 13:43:00,34.5,26.1,29.80,WSW,249,13.0,16.0,71,0.00,,---,0.00,VWS V14.00,2013-01-12 19:43:00,
2013-01-12 13:48:00,34.8,26.7,29.81,SW,217,3.0,12.0,72,0.00,,---,0.00,VWS V14.00,2013-01-12 19:48:00,
2013-01-12 13:53:00,34.9,26.5,29.81,West,267,3.0,11.0,71,0.00,,---,0.00,VWS V14.00,2013-01-12 19:53:00,
2013-01-12 13:58:00,34.6,26.2,29.81,WNW,286,5.0,13.0,71,0.00,,---,0.00,VWS V14.00,2013-01-12 19:58:00,
2013-01-12 14:03:00,34.5,25.7,29.80,West,280,8.0,13.0,70,0.00,,---,0.00,VWS V14.00,2013-01-12 20:03:00,
2013-01-12 14:08:00,34.3,25.5,29.80,West,274,7.0,16.0,70,0.00,,---,0.00,VWS V14.00,2013-01-12 20:08:00,
2013-01-12 14:12:00,34.0,25.3,29.80,WNW,288,15.0,18.0,70,0.00,,---,0.00,VWS V14.00,2013-01-12 20:12:00,
2013-01-12 14:17:00,33.9,25.5,29.81,WSW,257,9.0,13.0,71,0.00,,---,0.00,VWS V14.00,2013-01-12 20:17:00,
2013-01-12 14:22:00,34.0,25.6,29.81,WNW,294,7.0,8.0,71,0.00,,---,0.00,VWS V14.00,2013-01-12 20:22:00,
2013-01-12 14:27:00,34.0,25.6,29.81,NW,305,8.0,10.0,71,0.00,,---,0.00,VWS V14.00,2013-01-12 20:27:00,
2013-01-12 14:32:00,33.7,24.6,29.82,West,263,14.0,14.0,69,0.00,,---,0.00,VWS V14.00,2013-01-12 20:32:00,
2013-01-12 14:37:00,33.6,24.9,29.82,WNW,288,8.0,10.0,70,0.00,,---,0.00,VWS V14.00,2013-01-12 20:37:00,
2013-01-12 14:42:00,33.4,24.3,29.82,NNW,333,5.0,11.0,69,0.00,,---,0.00,VWS V14.00,2013-01-12 20:42:00,
2013-01-12 14:47:00,33.2,23.8,29.82,WNW,282,7.0,10.0,68,0.00,,---,0.00,VWS V14.00,2013-01-12 20:47:00,
2013-01-12 14:52:00,33.2,23.8,29.82,WSW,253,10.0,14.0,68,0.00,,---,0.00,VWS V14.00,2013-01-12 20:52:00,
2013-01-12 14:57:00,33.0,24.0,29.82,WNW,296,11.0,11.0,69,0.00,,---,0.00,VWS V14.00,2013-01-12 20:57:00,
2013-01-12 15:03:00,32.8,23.8,29.83,WSW,244,7.0,9.0,69,0.00,,---,0.00,VWS V14.00,2013-01-12 21:03:00,
2013-01-12 15:08:00,32.8,23.8,29.83,NW,308,7.0,11.0,69,0.00,,---,0.00,VWS V14.00,2013-01-12 21:08:00,
2013-01-12 15:13:00,32.7,23.7,29.83,WNW,298,10.0,14.0,69,0.00,,---,0.00,VWS V14.00,2013-01-12 21:13:00,
2013-01-12 15:17:00,32.5,23.8,29.83,West,265,8.0,9.0,70,0.00,,---,0.00,VWS V14.00,2013-01-12 21:17:00,
2013-01-12 15:22:00,32.5,23.8,29.83,NW,313,7.0,11.0,70,0.00,,---,0.00,VWS V14.00,2013-01-12 21:22:00,
2013-01-12 15:28:00,32.4,23.4,29.83,NW,321,11.0,12.0,69,0.00,,---,0.00,VWS V14.00,2013-01-12 21:28:00,
2013-01-12 15:33:00,32.2,23.2,29.83,NW,313,10.0,12.0,69,0.00,,---,0.00,VWS V14.00,2013-01-12 21:33:00,
2013-01-12 15:38:00,32.0,23.0,29.83,WNW,286,7.0,11.0,69,0.00,,---,0.00,VWS V14.00,2013-01-12 21:38:00,
2013-01-12 15:42:00,31.9,23.2,29.83,WNW,290,6.0,9.0,70,0.00,,---,0.00,VWS V14.00,2013-01-12 21:42:00,
2013-01-12 15:47:00,31.9,23.6,29.83,WSW,250,4.0,6.0,71,0.00,,---,0.00,VWS V14.00,2013-01-12 21:47:00,
2013-01-12 15:52:00,31.7,23.4,29.83,WNW,300,4.0,8.0,71,0.00,,---,0.00,VWS V14.00,2013-01-12 21:52:00,
2013-01-12 15:57:00,31.6,23.6,29.83,WSW,239,7.0,7.0,72,0.00,,---,0.00,VWS V14.00,2013-01-12 21:57:00,
2013-01-12 16:02:00,31.6,23.6,29.84,WNW,298,5.0,10.0,72,0.00,,---,0.00,VWS V14.00,2013-01-12 22:02:00,
2013-01-12 16:07:00,31.5,23.5,29.84,WSW,242,7.0,7.0,72,0.00,,---,0.00,VWS V14.00,2013-01-12 22:07:00,
2013-01-12 16:12:00,31.5,23.2,29.84,NW,311,8.0,14.0,71,0.00,,---,0.00,VWS V14.00,2013-01-12 22:12:00,
2013-01-12 16:17:00,31.5,23.5,29.85,WNW,284,10.0,10.0,72,0.00,,---,0.00,VWS V14.00,2013-01-12 22:17:00,
2013-01-12 16:22:00,31.5,23.2,29.85,WNW,286,6.0,13.0,71,0.00,,---,0.00,VWS V14.00,2013-01-12 22:22:00,
2013-01-12 16:27:00,31.4,23.1,29.85,West,275,6.0,9.0,71,0.00,,---,0.00,VWS V14.00,2013-01-12 22:27:00,
2013-01-12 16:33:00,31.4,23.1,29.87,WSW,254,4.0,8.0,71,0.00,,---,0.00,VWS V14.00,2013-01-12 22:33:00,
2013-01-12 16:38:00,31.2,22.9,29.87,SW,235,4.0,9.0,71,0.00,,---,0.00,VWS V14.00,2013-01-12 22:38:00,
2013-01-12 16:43:00,31.0,22.7,29.87,WSW,238,6.0,9.0,71,0.00,,---,0.00,VWS V14.00,2013-01-12 22:43:00,
2013-01-12 16:48:00,30.9,23.0,29.87,WSW,249,7.0,13.0,72,0.00,,---,0.00,VWS V14.00,2013-01-12 22:48:00,
2013-01-12 16:53:00,30.8,22.9,29.87,West,267,4.0,9.0,72,0.00,,---,0.00,VWS V14.00,2013-01-12 22:53:00,
2013-01-12 16:58:00,30.7,22.8,29.87,West,281,3.0,7.0,72,0.00,,---,0.00,VWS V14.00,2013-01-12 22:58:00,
2013-01-12 17:03:00,30.6,22.7,29.87,WNW,294,6.0,9.0,72,0.00,,---,0.00,VWS V14.00,2013-01-12 23:03:00,
2013-01-12 17:08:00,30.6,23.0,29.87,WNW,284,7.0,11.0,73,0.00,,---,0.00,VWS V14.00,2013-01-12 23:08:00,
2013-01-12 17:13:00,30.5,22.9,29.87,WNW,286,6.0,6.0,73,0.00,,---,0.00,VWS V14.00,2013-01-12 23:13:00,
2013-01-12 17:18:00,30.5,22.9,29.86,NW,307,7.0,7.0,73,0.00,,---,0.00,VWS V14.00,2013-01-12 23:18:00,
2013-01-12 17:22:00,30.4,22.8,29.86,West,270,10.0,10.0,73,0.00,,---,0.00,VWS V14.00,2013-01-12 23:22:00,
2013-01-12 17:27:00,30.4,22.8,29.86,WNW,286,8.0,11.0,73,0.00,,---,0.00,VWS V14.00,2013-01-12 23:27:00,
2013-01-12 17:32:00,30.2,22.6,29.84,WNW,303,7.0,10.0,73,0.00,,---,0.00,VWS V14.00,2013-01-12 23:32:00,
2013-01-12 17:38:00,30.2,22.6,29.84,West,275,4.0,7.0,73,0.00,,---,0.00,VWS V14.00,2013-01-12 23:38:00,
2013-01-12 17:43:00,30.1,22.2,29.84,WNW,291,2.0,10.0,72,0.00,,---,0.00,VWS V14.00,2013-01-12 23:43:00,
2013-01-12 17:48:00,30.1,22.5,29.85,NW,306,2.0,6.0,73,0.00,,---,0.00,VWS V14.00,2013-01-12 23:48:00,
2013-01-12 17:52:00,30.0,22.7,29.85,West,263,5.0,7.0,74,0.00,,---,0.00,VWS V14.00,2013-01-12 23:52:00,
2013-01-12 17:57:00,30.0,22.4,29.85,South,188,0.0,6.0,73,0.00,,---,0.00,VWS V14.00,2013-01-12 23:57:00,
2013-01-12 18:03:00,29.9,22.3,29.85,WNW,286,5.0,7.0,73,0.00,,---,0.00,VWS V14.00,2013-01-13 00:03:00,
2013-01-12 18:08:00,29.9,22.3,29.85,SW,232,0.0,2.0,73,0.00,,---,0.00,VWS V14.00,2013-01-13 00:08:00,
2013-01-12 18:13:00,30.0,22.7,29.85,West,275,1.0,4.0,74,0.00,,---,0.00,VWS V14.00,2013-01-13 00:13:00,
2013-01-12 18:18:00,30.1,22.8,29.85,WSW,249,6.0,8.0,74,0.00,,---,0.00,VWS V14.00,2013-01-13 00:18:00,
2013-01-12 18:23:00,30.0,22.7,29.85,SW,225,2.0,3.0,74,0.00,,---,0.00,VWS V14.00,2013-01-13 00:23:00,
2013-01-12 18:28:00,30.1,23.1,29.85,West,263,2.0,4.0,75,0.00,,---,0.00,VWS V14.00,2013-01-13 00:28:00,
2013-01-12 18:33:00,30.1,23.1,29.85,West,274,1.0,4.0,75,0.00,,---,0.00,VWS V14.00,2013-01-13 00:33:00,
2013-01-12 18:38:00,30.0,23.0,29.85,SW,232,0.0,3.0,75,0.00,,---,0.00,VWS V14.00,2013-01-13 00:38:00,
2013-01-12 18:43:00,30.0,23.4,29.85,West,265,0.0,1.0,76,0.00,,---,0.00,VWS V14.00,2013-01-13 00:43:00,
2013-01-12 18:48:00,30.0,23.4,29.83,NW,323,2.0,2.0,76,0.00,,---,0.00,VWS V14.00,2013-01-13 00:48:00,
2013-01-12 18:53:00,29.8,23.2,29.83,WNW,292,2.0,5.0,76,0.00,,---,0.00,VWS V14.00,2013-01-13 00:53:00,
2013-01-12 18:58:00,29.7,23.1,29.83,WNW,294,2.0,3.0,76,0.00,,---,0.00,VWS V14.00,2013-01-13 00:58:00,
2013-01-12 19:03:00,29.7,23.1,29.83,West,265,0.0,4.0,76,0.00,,---,0.00,VWS V14.00,2013-01-13 01:03:00,
2013-01-12 19:08:00,29.7,23.4,29.83,SW,235,3.0,4.0,77,0.00,,---,0.00,VWS V14.00,2013-01-13 01:08:00,
2013-01-12 19:13:00,29.8,23.5,29.83,West,273,0.0,5.0,77,0.00,,---,0.00,VWS V14.00,2013-01-13 01:13:00,
2013-01-12 19:18:00,29.9,23.6,29.85,West,265,1.0,6.0,77,0.00,,---,0.00,VWS V14.00,2013-01-13 01:18:00,
2013-01-12 19:23:00,29.8,23.5,29.85,NW,305,4.0,6.0,77,0.00,,---,0.00,VWS V14.00,2013-01-13 01:23:00,
2013-01-12 19:28:00,29.8,23.5,29.85,West,259,1.0,5.0,77,0.00,,---,0.00,VWS V14.00,2013-01-13 01:28:00,
2013-01-12 19:33:00,29.8,23.5,29.87,West,267,0.0,4.0,77,0.00,,---,0.00,VWS V14.00,2013-01-13 01:33:00,
2013-01-12 19:38:00,29.8,23.5,29.87,WNW,296,3.0,6.0,77,0.00,,---,0.00,VWS V14.00,2013-01-13 01:38:00,
2013-01-12 19:43:00,29.8,23.5,29.87,NW,314,0.0,3.0,77,0.00,,---,0.00,VWS V14.00,2013-01-13 01:43:00,
2013-01-12 19:48:00,29.8,23.5,29.88,West,280,1.0,5.0,77,0.00,,---,0.00,VWS V14.00,2013-01-13 01:48:00,
2013-01-12 19:53:00,29.8,23.5,29.88,WSW,253,7.0,8.0,77,0.00,,---,0.00,VWS V14.00,2013-01-13 01:53:00,
2013-01-12 19:58:00,29.7,23.4,29.88,WNW,289,2.0,6.0,77,0.00,,---,0.00,VWS V14.00,2013-01-13 01:58:00,
2013-01-12 20:03:00,29.6,23.3,29.87,WNW,284,3.0,5.0,77,0.00,,---,0.00,VWS V14.00,2013-01-13 02:03:00,
2013-01-12 20:08:00,29.7,23.4,29.87,West,267,1.0,4.0,77,0.00,,---,0.00,VWS V14.00,2013-01-13 02:08:00,
2013-01-12 20:13:00,29.7,23.4,29.87,West,276,0.0,4.0,77,0.00,,---,0.00,VWS V14.00,2013-01-13 02:13:00,
2013-01-12 20:18:00,29.7,23.7,29.90,WNW,285,4.0,6.0,78,0.00,,---,0.00,VWS V14.00,2013-01-13 02:18:00,
2013-01-12 20:23:00,29.7,23.7,29.90,West,277,0.0,3.0,78,0.00,,---,0.00,VWS V14.00,2013-01-13 02:23:00,
2013-01-12 20:28:00,29.8,23.8,29.90,WSW,245,1.0,3.0,78,0.00,,---,0.00,VWS V14.00,2013-01-13 02:28:00,
2013-01-12 20:33:00,29.7,23.7,29.90,WSW,252,4.0,4.0,78,0.00,,---,0.00,VWS V14.00,2013-01-13 02:33:00,
2013-01-12 20:38:00,29.6,23.3,29.90,West,281,5.0,7.0,77,0.00,,---,0.00,VWS V14.00,2013-01-13 02:38:00,
2013-01-12 20:43:00,29.5,23.2,29.90,WNW,294,2.0,4.0,77,0.00,,---,0.00,VWS V14.00,2013-01-13 02:43:00,
2013-01-12 20:48:00,29.4,22.5,29.89,NW,324,3.0,9.0,75,0.00,,---,0.00,VWS V14.00,2013-01-13 02:48:00,
2013-01-12 20:52:00,29.3,22.4,29.89,WNW,297,7.0,8.0,75,0.00,,---,0.00,VWS V14.00,2013-01-13 02:52:00,
2013-01-12 20:57:00,29.2,22.3,29.89,WNW,292,4.0,9.0,75,0.00,,---,0.00,VWS V14.00,2013-01-13 02:57:00,
2013-01-12 21:02:00,29.1,22.2,29.88,North,355,1.0,8.0,75,0.00,,---,0.00,VWS V14.00,2013-01-13 03:02:00,
2013-01-12 21:07:00,29.0,22.1,29.88,WNW,288,5.0,8.0,75,0.00,,---,0.00,VWS V14.00,2013-01-13 03:07:00,
2013-01-12 21:12:00,28.9,22.3,29.88,WNW,299,3.0,4.0,76,0.00,,---,0.00,VWS V14.00,2013-01-13 03:12:00,
2013-01-12 21:17:00,28.9,22.3,29.87,NW,306,3.0,6.0,76,0.00,,---,0.00,VWS V14.00,2013-01-13 03:17:00,
2013-01-12 21:22:00,28.8,22.2,29.87,WNW,290,5.0,6.0,76,0.00,,---,0.00,VWS V14.00,2013-01-13 03:22:00,
2013-01-12 21:27:00,28.8,21.9,29.87,NW,313,2.0,7.0,75,0.00,,---,0.00,VWS V14.00,2013-01-13 03:27:00,
2013-01-12 21:32:00,28.7,21.8,29.87,NW,312,3.0,9.0,75,0.00,,---,0.00,VWS V14.00,2013-01-13 03:32:00,
2013-01-12 21:37:00,28.6,21.4,29.87,SSW,202,2.0,8.0,74,0.00,,---,0.00,VWS V14.00,2013-01-13 03:37:00,
2013-01-12 21:42:00,28.4,21.2,29.87,NW,310,6.0,9.0,74,0.00,,---,0.00,VWS V14.00,2013-01-13 03:42:00,
2013-01-12 21:47:00,28.4,21.2,29.86,NNW,327,11.0,12.0,74,0.00,,---,0.00,VWS V14.00,2013-01-13 03:47:00,
2013-01-12 21:52:00,28.2,21.0,29.86,WNW,300,5.0,9.0,74,0.00,,---,0.00,VWS V14.00,2013-01-13 03:52:00,
2013-01-12 21:57:00,28.1,21.5,29.86,West,281,2.0,6.0,76,0.00,,---,0.00,VWS V14.00,2013-01-13 03:57:00,
2013-01-12 22:02:00,28.0,21.7,29.86,WNW,302,2.0,8.0,77,0.00,,---,0.00,VWS V14.00,2013-01-13 04:02:00,
2013-01-12 22:07:00,27.8,21.9,29.86,NNW,338,3.0,12.0,78,0.00,,---,0.00,VWS V14.00,2013-01-13 04:07:00,
2013-01-12 22:12:00,27.6,22.0,29.86,WNW,297,5.0,11.0,79,0.00,,---,0.00,VWS V14.00,2013-01-13 04:12:00,
2013-01-12 22:17:00,27.4,22.4,29.83,WNW,291,6.0,11.0,81,0.00,,---,0.00,VWS V14.00,2013-01-13 04:17:00,
2013-01-12 22:22:00,27.1,22.6,29.83,WNW,285,12.0,12.0,83,0.00,,---,0.00,VWS V14.00,2013-01-13 04:22:00,
2013-01-12 22:27:00,26.7,22.5,29.83,WNW,298,4.0,12.0,84,0.00,,---,0.00,VWS V14.00,2013-01-13 04:27:00,
2013-01-12 22:32:00,26.3,23.0,29.83,NW,304,8.0,10.0,87,0.00,,---,0.00,VWS V14.00,2013-01-13 04:32:00,
2013-01-12 22:37:00,26.0,22.7,29.83,NW,308,1.0,9.0,87,0.00,,---,0.00,VWS V14.00,2013-01-13 04:37:00,
2013-01-12 22:42:00,25.8,22.7,29.83,NW,315,1.0,8.0,88,0.00,,---,0.00,VWS V14.00,2013-01-13 04:42:00,
2013-01-12 22:47:00,25.6,22.8,29.81,West,279,3.0,11.0,89,0.00,,---,0.00,VWS V14.00,2013-01-13 04:47:00,
2013-01-12 22:52:00,25.4,22.6,29.81,WNW,300,5.0,14.0,89,0.00,,---,0.00,VWS V14.00,2013-01-13 04:52:00,
2013-01-12 22:57:00,25.5,23.0,29.81,NW,325,7.0,9.0,90,0.00,,---,0.00,VWS V14.00,2013-01-13 04:57:00,
2013-01-12 23:01:00,25.5,23.0,29.82,WNW,289,7.0,7.0,90,0.00,,---,0.00,VWS V14.00,2013-01-13 05:01:00,
2013-01-12 23:02:00,25.5,23.0,29.82,NNE,19,3.0,8.0,90,0.00,,---,0.00,VWS V14.00,2013-01-13 05:02:00,
2013-01-12 23:03:00,25.5,23.0,29.82,NW,325,2.0,9.0,90,0.00,,---,0.00,VWS V14.00,2013-01-13 05:03:00,
2013-01-12 23:08:00,25.5,23.0,29.82,NW,315,2.0,9.0,90,0.00,,---,0.00,VWS V14.00,2013-01-13 05:08:00,
2013-01-12 23:13:00,25.5,23.0,29.82,NNW,342,4.0,9.0,90,0.00,,---,0.00,VWS V14.00,2013-01-13 05:13:00,
2013-01-12 23:18:00,25.5,22.7,29.82,WNW,289,2.0,8.0,89,0.00,,---,0.00,VWS V14.00,2013-01-13 05:18:00,
2013-01-12 23:23:00,25.6,23.1,29.82,NW,326,0.0,4.0,90,0.00,,---,0.00,VWS V14.00,2013-01-13 05:23:00,
2013-01-12 23:28:00,25.6,23.1,29.82,NW,308,6.0,7.0,90,0.00,,---,0.00,VWS V14.00,2013-01-13 05:28:00,
2013-01-12 23:33:00,25.5,23.0,29.82,NNW,328,3.0,8.0,90,0.00,,---,0.00,VWS V14.00,2013-01-13 05:33:00,
2013-01-12 23:38:00,25.5,23.2,29.82,NNW,331,5.0,7.0,91,0.00,,---,0.00,VWS V14.00,2013-01-13 05:38:00,
2013-01-12 23:43:00,25.5,23.2,29.82,WNW,284,3.0,7.0,91,0.00,,---,0.00,VWS V14.00,2013-01-13 05:43:00,
2013-01-12 23:48:00,25.6,23.3,29.83,West,273,2.0,6.0,91,0.00,,---,0.00,VWS V14.00,2013-01-13 05:48:00,
2013-01-12 23:53:00,25.7,23.4,29.83,NNE,19,1.0,4.0,91,0.00,,---,0.00,VWS V14.00,2013-01-13 05:53:00,
2013-01-12 23:58:00,25.6,23.3,29.83,NW,315,3.0,6.0,91,0.00,,---,0.00,VWS V14.00,2013-01-13 05:58:00,